Erie International Airport

Current Flights

Info
Name: Erie International Airport
Identifier:  ERI/KERI
Local Time:  19. May 08:23
Flights per Day
23 flights
Distance: 541km (336mi)
Punctuality
88% (2 flights per day delayed)
Delay Average: 38 minutes
Current Weather
 24 C (Humidity: 64%)
  13kt (24km/h / 14mph) from 190°
  Scattered clouds at 11,000 feet (3,352 meter)
  16km (10 mi.)
 METAR KERI 191151Z 19013KT 10SM SCT110 24/17 A2987 RMK AO2 SLP109 70002 T02440167 10244 20217 58002

Current Delays

Departures
N/A
Arrivals
N/A

Destinations

Top Destinations
Airport Flights
per week
Seats
per week
  Detroit (DTW) 35 1,876 5 268
  Chicago (ORD) 35 1,855 5 265
  Charlotte (CLT) 28 1,435 4 205
  Philadelphia (PHL) 21 1,127 3 161
  Cleveland (CLE) 7 - 1 -1
  Detroit (DET) <1 - 0 0
  Cleveland (CGF) <1 - 0 0
  Ottawa (YOW) <1 - 0 0

Airlines & Planes

Top Airlines
Airline Flights
per Day
Seats
per Day
  SkyWest Airlines 5 265
  Envoy 4 211
  Air Wisconsin 4 210
  Piedmont Airlines 3 163
  Mountain Air Cargo 1 -1
NetJets <1 -
  Novair <1 -
  Trans States Airlines <1 25
  National Airlines <1 -
Top Plane Types
Manufacturer Model Flights Seats
Bombardier CRJ200 9.0/day 451/day 451.6666666666667
Embraer ERJ145 8.5/day 426/day 426.6666666666667
Cessna C208 1.6/day - -1.4666666666666668
Pilatus PC-12 0.6/day - -0.03333333333333333
Bombardier Challenger 600 0.5/day 26/day 26.666666666666668
Cessna C68A 0.4/day - -0.26666666666666666
Embraer Phenom 300 0.2/day - -0.3333333333333333